Campanya meteocatpedra

Dades de l'estació automàtica Port de Barcelona - Bocana Sud

?
?
Resum diari 12:30 TU
Dades diàries de l'estació meteorològica
Ratxa màxima del vent (10 m) 36.0 km/h - 37º 0:09 TU

El tram horari està expressat en Temps Universal (TU). Cal sumar una hora en horari d'hivern i dues en horari d'estiu per passar a l'hora oficial.

Port de Barcelona - Bocana Sud

Metadades estació meteorol´gica
Municipi El Prat de Llobregat
Comarca Baix Llobregat
Altitud 3 m
Data alta 08.04.2015
Estat actual Operativa
Dades de període
Període
TU
VVM (10 m)
km/h
DVM (10 m)
graus
VVX (10 m)
km/h
00:00 - 00:30 23.8 38 36.0
00:30 - 01:00 18.7 25 25.2
01:00 - 01:30 17.6 28 22.3
01:30 - 02:00 14.4 29 20.2
02:00 - 02:30 14.0 31 19.4
02:30 - 03:00 13.0 20 19.8
03:00 - 03:30 19.1 31 26.6
03:30 - 04:00 22.3 30 30.2
04:00 - 04:30 22.0 34 29.2
04:30 - 05:00 20.9 30 28.8
05:00 - 05:30 18.4 24 23.0
05:30 - 06:00 15.5 22 20.5
06:00 - 06:30 14.0 19 17.3
06:30 - 07:00 10.8 42 14.8
07:00 - 07:30 9.0 73 12.2
07:30 - 08:00 10.1 65 14.4
08:00 - 08:30 8.3 48 11.2
08:30 - 09:00 7.6 63 12.6
09:00 - 09:30 6.5 76 9.7
09:30 - 10:00 7.2 82 11.5
10:00 - 10:30 10.8 82 14.4
10:30 - 11:00 10.8 79 17.3
11:00 - 11:30 7.9 86 17.3
11:30 - 12:00 20.9 100 31.3
12:00 - 12:30 22.0 94 28.1
12:30 - 13:00 16.6 63 23.0
13:00 - 13:30 (s/d) (s/d) (s/d)

Les dades en taronja només han passat un control de qualitat automàtic. Resta pendent la seva validació definitiva.